createdAt,value
2022-12-01T00:00:30.836Z,100379.50
2022-12-01T00:01:03.137Z,100382.69
2022-12-01T00:01:34.872Z,100378.97
2022-12-01T00:02:06.686Z,100379.63
2022-12-01T00:02:38.641Z,100383.31
2022-12-01T00:03:10.500Z,100380.53
2022-12-01T00:03:42.770Z,100377.97
2022-12-01T00:04:14.464Z,100382.34
2022-12-01T00:04:47.620Z,100378.12
2022-12-01T00:05:20.108Z,100381.44
2022-12-01T00:05:58.692Z,100381.38
2022-12-01T00:06:30.666Z,100381.06
2022-12-01T00:07:02.322Z,100385.00
2022-12-01T00:07:34.169Z,100383.09
2022-12-01T00:08:06.049Z,100383.91
2022-12-01T00:08:39.019Z,100383.28
2022-12-01T00:09:29.193Z,100384.91
2022-12-01T00:10:19.675Z,100387.50
2022-12-01T00:10:51.353Z,100385.72
2022-12-01T00:11:23.012Z,100387.03
2022-12-01T00:11:55.003Z,100383.91
2022-12-01T00:12:26.724Z,100383.44
2022-12-01T00:12:59.788Z,100397.34
2022-12-01T00:13:32.032Z,100392.19
2022-12-01T00:14:04.216Z,100386.94
2022-12-01T00:14:36.000Z,100395.38
2022-12-01T00:15:07.806Z,100391.00
2022-12-01T00:15:39.466Z,100397.50
2022-12-01T00:16:12.362Z,100394.09
2022-12-01T00:16:44.646Z,100398.62
2022-12-01T00:17:16.811Z,100396.03
2022-12-01T00:17:49.132Z,100395.50
2022-12-01T00:18:20.921Z,100394.56
2022-12-01T00:18:52.909Z,100393.06
2022-12-01T00:19:25.783Z,100389.81
2022-12-01T00:19:57.502Z,100398.94
2022-12-01T00:20:29.775Z,100398.28
2022-12-01T00:21:01.434Z,100398.84
2022-12-01T00:21:33.144Z,100399.50
2022-12-01T00:22:04.849Z,100403.41
2022-12-01T00:22:36.844Z,100401.09
2022-12-01T00:23:08.535Z,100403.63
2022-12-01T00:23:42.819Z,100405.84
2022-12-01T00:24:14.529Z,100407.44
2022-12-01T00:24:46.627Z,100405.16
2022-12-01T00:25:19.280Z,100409.28
2022-12-01T00:25:50.947Z,100397.63
2022-12-01T00:26:23.256Z,100408.12
2022-12-01T00:26:54.945Z,100399.84
2022-12-01T00:27:27.004Z,100407.56
2022-12-01T00:27:59.183Z,100400.06
2022-12-01T00:28:30.913Z,100407.13
2022-12-01T00:29:02.624Z,100400.63
2022-12-01T00:29:34.299Z,100413.84
2022-12-01T00:30:06.769Z,100412.31
2022-12-01T00:30:38.444Z,100407.88
2022-12-01T00:31:11.239Z,100403.75
2022-12-01T00:31:42.993Z,100408.47
2022-12-01T00:32:14.834Z,100407.28
2022-12-01T00:32:47.177Z,100405.59
2022-12-01T00:33:19.233Z,100405.44
2022-12-01T00:33:51.027Z,100408.47
2022-12-01T00:34:23.790Z,100410.69
2022-12-01T00:34:55.480Z,100406.63
2022-12-01T00:35:27.154Z,100415.59
2022-12-01T00:36:01.975Z,100411.72
2022-12-01T00:36:33.657Z,100411.66
2022-12-01T00:37:05.531Z,100410.84
2022-12-01T00:37:37.540Z,100422.19
2022-12-01T00:38:09.231Z,100414.53
2022-12-01T00:38:41.214Z,100416.59
2022-12-01T00:39:12.899Z,100419.03
2022-12-01T00:39:44.582Z,100420.56
2022-12-01T00:40:16.296Z,100415.78
2022-12-01T00:40:47.981Z,100420.00
2022-12-01T00:41:20.951Z,100418.22
2022-12-01T00:41:52.777Z,100415.41
2022-12-01T00:42:24.533Z,100419.22
2022-12-01T00:42:56.204Z,100413.06
2022-12-01T00:43:27.877Z,100413.63
2022-12-01T00:43:59.868Z,100419.53
2022-12-01T00:44:31.522Z,100412.97
2022-12-01T00:45:03.304Z,100418.66
2022-12-01T00:45:35.051Z,100419.84
2022-12-01T00:46:06.915Z,100419.53
2022-12-01T00:46:38.717Z,100422.34
2022-12-01T00:47:10.858Z,100412.69
2022-12-01T00:47:42.829Z,100418.66
2022-12-01T00:48:14.517Z,100414.84
2022-12-01T00:48:46.355Z,100420.56
2022-12-01T00:49:18.385Z,100413.94
2022-12-01T00:49:50.244Z,100422.84
2022-12-01T00:50:22.075Z,100423.16
2022-12-01T00:50:55.336Z,100413.78
2022-12-01T00:51:27.475Z,100417.75
2022-12-01T00:51:59.282Z,100422.50
2022-12-01T00:52:30.978Z,100425.44
2022-12-01T00:53:02.646Z,100417.56
2022-12-01T00:53:34.511Z,100423.53
2022-12-01T00:54:06.187Z,100413.84
2022-12-01T00:54:38.248Z,100421.47
2022-12-01T00:55:09.925Z,100421.75
2022-12-01T00:55:41.697Z,100424.56
2022-12-01T00:56:13.435Z,100424.25
2022-12-01T00:56:45.113Z,100429.59
2022-12-01T00:57:16.817Z,100425.81
2022-12-01T00:57:50.793Z,100429.06
2022-12-01T00:58:23.323Z,100428.38
2022-12-01T00:58:55.024Z,100421.59
2022-12-01T00:59:26.755Z,100421.31
2022-12-01T00:59:58.750Z,100429.72
2022-12-01T01:00:30.472Z,100423.59
2022-12-01T01:01:02.362Z,100428.75
2022-12-01T01:01:35.171Z,100425.53
2022-12-01T01:02:07.647Z,100434.09
2022-12-01T01:02:40.365Z,100433.06
2022-12-01T01:03:12.121Z,100429.94
2022-12-01T01:03:43.801Z,100428.31
2022-12-01T01:04:15.715Z,100430.78
2022-12-01T01:04:47.398Z,100428.03
2022-12-01T01:05:19.368Z,100428.47
2022-12-01T01:05:51.073Z,100428.38
2022-12-01T01:06:22.741Z,100427.72
2022-12-01T01:06:54.491Z,100426.78
2022-12-01T01:07:26.261Z,100420.56
2022-12-01T01:07:58.088Z,100421.50
2022-12-01T01:08:29.863Z,100421.06
2022-12-01T01:09:01.608Z,100417.66
2022-12-01T01:09:33.477Z,100415.16
2022-12-01T01:10:05.523Z,100411.09
2022-12-01T01:10:41.684Z,100422.88
2022-12-01T01:11:13.373Z,100424.41
2022-12-01T01:11:45.076Z,100414.81
2022-12-01T01:12:16.735Z,100413.63
2022-12-01T01:12:48.429Z,100412.00
2022-12-01T01:13:20.175Z,100413.69
2022-12-01T01:13:51.886Z,100414.50
2022-12-01T01:14:24.187Z,100414.81
2022-12-01T01:14:55.878Z,100420.25
2022-12-01T01:15:27.562Z,100416.19
2022-12-01T01:16:00.422Z,100414.13
2022-12-01T01:16:32.252Z,100413.19
2022-12-01T01:17:04.144Z,100413.16
2022-12-01T01:17:35.854Z,100420.97
2022-12-01T01:18:09.656Z,100418.81
2022-12-01T01:18:41.505Z,100420.88
2022-12-01T01:19:13.539Z,100418.47
2022-12-01T01:19:45.323Z,100419.00
2022-12-01T01:20:17.105Z,100410.63
2022-12-01T01:20:54.968Z,100408.44
2022-12-01T01:21:27.376Z,100411.78
2022-12-01T01:21:59.084Z,100409.69
2022-12-01T01:22:30.753Z,100412.94
2022-12-01T01:23:02.519Z,100410.44
2022-12-01T01:23:34.496Z,100405.03
2022-12-01T01:24:06.367Z,100407.72
2022-12-01T01:24:38.174Z,100410.19
2022-12-01T01:25:09.926Z,100415.84
2022-12-01T01:25:41.599Z,100409.63
2022-12-01T01:26:13.227Z,100410.69
2022-12-01T01:26:45.329Z,100413.41
2022-12-01T01:27:17.093Z,100407.59
2022-12-01T01:27:48.810Z,100406.84
2022-12-01T01:28:20.484Z,100400.66
2022-12-01T01:28:52.951Z,100409.59
2022-12-01T01:29:24.656Z,100403.59
2022-12-01T01:29:56.348Z,100404.28
2022-12-01T01:30:28.099Z,100407.41
2022-12-01T01:31:00.181Z,100402.31
2022-12-01T01:31:32.053Z,100407.69
2022-12-01T01:32:04.272Z,100404.59
2022-12-01T01:32:35.939Z,100403.47
2022-12-01T01:33:07.611Z,100404.09
2022-12-01T01:33:39.471Z,100399.63
2022-12-01T01:34:11.175Z,100406.56
2022-12-01T01:34:42.856Z,100403.69
2022-12-01T01:35:14.597Z,100403.84
2022-12-01T01:35:46.273Z,100400.88
2022-12-01T01:36:18.573Z,100405.75
2022-12-01T01:36:50.744Z,100406.28
2022-12-01T01:37:22.758Z,100405.47
2022-12-01T01:37:54.425Z,100404.38
2022-12-01T01:38:26.360Z,100407.47
2022-12-01T01:38:58.999Z,100406.53
2022-12-01T01:39:30.687Z,100398.31
2022-12-01T01:40:02.400Z,100405.81
2022-12-01T01:40:34.110Z,100404.44
2022-12-01T01:41:06.630Z,100405.41
2022-12-01T01:41:38.337Z,100403.09
2022-12-01T01:42:14.581Z,100398.91
2022-12-01T01:42:46.626Z,100402.16
2022-12-01T01:43:37.811Z,100402.59
2022-12-01T01:44:28.216Z,100400.97
2022-12-01T01:44:59.880Z,100404.22
2022-12-01T01:45:31.741Z,100400.97
2022-12-01T01:46:04.559Z,100406.41
2022-12-01T01:46:36.819Z,100404.22
2022-12-01T01:47:08.523Z,100403.25
2022-12-01T01:47:40.381Z,100406.47
2022-12-01T01:48:13.648Z,100402.16
2022-12-01T01:48:48.031Z,100402.72
2022-12-01T01:49:19.911Z,100404.38
2022-12-01T01:49:52.514Z,100400.72
2022-12-01T01:50:26.529Z,100402.47
2022-12-01T01:50:58.310Z,100394.88
2022-12-01T01:51:35.520Z,100397.47
2022-12-01T01:52:07.245Z,100395.41
2022-12-01T01:52:43.215Z,100403.53
2022-12-01T01:53:15.764Z,100401.12
2022-12-01T01:53:48.792Z,100399.66
2022-12-01T01:54:22.516Z,100403.56
2022-12-01T01:54:55.592Z,100411.16
2022-12-01T01:55:28.485Z,100406.25
2022-12-01T01:56:01.781Z,100411.28
2022-12-01T01:56:35.016Z,100406.81
2022-12-01T01:57:07.793Z,100407.78
2022-12-01T01:57:40.242Z,100404.75
2022-12-01T01:58:12.128Z,100404.13
2022-12-01T01:58:44.418Z,100401.66
2022-12-01T01:59:19.777Z,100403.31
2022-12-01T01:59:54.252Z,100409.69
2022-12-01T02:00:26.076Z,100405.63
2022-12-01T02:00:58.078Z,100403.72
2022-12-01T02:01:31.299Z,100408.03
2022-12-01T02:02:06.533Z,100406.16
2022-12-01T02:02:40.832Z,100399.66
2022-12-01T02:03:16.308Z,100405.34
2022-12-01T02:03:48.968Z,100404.00
2022-12-01T02:04:20.651Z,100400.97
2022-12-01T02:04:55.838Z,100403.28
2022-12-01T02:05:29.681Z,100398.69
2022-12-01T02:06:04.687Z,100400.44
2022-12-01T02:06:37.095Z,100399.91
2022-12-01T02:07:11.456Z,100397.72
2022-12-01T02:07:43.228Z,100402.34
2022-12-01T02:08:14.930Z,100401.78
2022-12-01T02:08:46.630Z,100401.53
2022-12-01T02:09:18.505Z,100399.66
2022-12-01T02:09:50.316Z,100406.41
2022-12-01T02:10:24.110Z,100404.00
2022-12-01T02:11:05.313Z,100404.13
2022-12-01T02:11:48.557Z,100404.50
2022-12-01T02:12:38.327Z,100397.47
2022-12-01T02:13:10.062Z,100409.25
2022-12-01T02:13:44.828Z,100402.47
2022-12-01T02:14:25.070Z,100406.41
2022-12-01T02:14:59.281Z,100393.37
2022-12-01T02:15:37.415Z,100398.97
2022-12-01T02:16:30.736Z,100398.69
2022-12-01T02:17:05.922Z,100399.09
2022-12-01T02:17:44.692Z,100403.44
2022-12-01T02:18:16.336Z,100401.69
2022-12-01T02:19:05.345Z,100401.66
2022-12-01T02:19:52.504Z,100396.69
2022-12-01T02:20:33.130Z,100399.78
2022-12-01T02:21:23.462Z,100393.00
2022-12-01T02:22:07.149Z,100405.59
2022-12-01T02:22:39.093Z,100399.25
2022-12-01T02:23:10.732Z,100399.37
2022-12-01T02:23:42.443Z,100396.16
2022-12-01T02:24:26.132Z,100405.06
2022-12-01T02:25:03.701Z,100399.22
2022-12-01T02:25:35.474Z,100401.00
2022-12-01T02:26:13.092Z,100400.31
2022-12-01T02:26:49.494Z,100402.75
2022-12-01T02:27:29.384Z,100396.53
2022-12-01T02:28:13.644Z,100394.47
2022-12-01T02:28:55.128Z,100399.91
2022-12-01T02:29:26.766Z,100398.31
2022-12-01T02:30:04.401Z,100391.25
2022-12-01T02:30:47.941Z,100389.91
2022-12-01T02:31:22.356Z,100390.97
2022-12-01T02:32:12.828Z,100386.66
2022-12-01T02:32:47.227Z,100392.84
2022-12-01T02:33:38.256Z,100391.75
2022-12-01T02:34:14.776Z,100390.00
2022-12-01T02:34:49.320Z,100389.06
2022-12-01T02:35:33.253Z,100388.38
2022-12-01T02:36:15.091Z,100391.22
2022-12-01T02:36:50.936Z,100383.88
2022-12-01T02:37:22.635Z,100388.44
2022-12-01T02:38:13.041Z,100385.28
2022-12-01T02:38:50.857Z,100391.12
2022-12-01T02:39:38.233Z,100383.09
2022-12-01T02:40:09.991Z,100391.59
2022-12-01T02:40:52.460Z,100395.97
2022-12-01T02:41:29.657Z,100387.72
2022-12-01T02:42:09.436Z,100389.50
2022-12-01T02:42:50.274Z,100388.12
2022-12-01T02:43:27.717Z,100385.13
2022-12-01T02:43:59.668Z,100394.34
2022-12-01T02:44:35.053Z,100386.84
2022-12-01T02:45:11.467Z,100391.81
2022-12-01T02:45:45.895Z,100390.59
2022-12-01T02:46:27.284Z,100389.91
2022-12-01T02:46:59.044Z,100386.37
2022-12-01T02:47:32.892Z,100386.09
2022-12-01T02:48:06.413Z,100382.69
2022-12-01T02:48:43.010Z,100390.19
2022-12-01T02:49:21.013Z,100389.25
2022-12-01T02:49:54.598Z,100383.66
2022-12-01T02:50:28.187Z,100385.53
2022-12-01T02:51:03.445Z,100382.28
2022-12-01T02:51:37.473Z,100390.31
2022-12-01T02:52:10.211Z,100376.34
2022-12-01T02:52:42.806Z,100382.63
2022-12-01T02:53:15.842Z,100381.47
2022-12-01T02:53:47.713Z,100382.53
2022-12-01T02:54:19.804Z,100376.97
2022-12-01T02:54:52.067Z,100378.84
2022-12-01T02:55:23.745Z,100372.31
2022-12-01T02:55:57.720Z,100376.31
2022-12-01T02:56:29.569Z,100377.28
2022-12-01T02:57:01.270Z,100372.06
2022-12-01T02:57:33.039Z,100376.28
2022-12-01T02:58:12.450Z,100373.31
2022-12-01T02:58:44.134Z,100372.41
2022-12-01T02:59:16.160Z,100376.75
2022-12-01T02:59:51.050Z,100380.03
2022-12-01T03:00:22.967Z,100376.47
2022-12-01T03:01:00.135Z,100374.19
2022-12-01T03:01:52.211Z,100373.91
2022-12-01T03:02:27.461Z,100376.94
2022-12-01T03:03:08.280Z,100382.19
2022-12-01T03:03:58.600Z,100382.19
2022-12-01T03:04:42.412Z,100374.38
2022-12-01T03:05:32.847Z,100373.31
2022-12-01T03:06:12.557Z,100373.66
2022-12-01T03:06:56.420Z,100383.00
2022-12-01T03:07:46.729Z,100378.97
2022-12-01T03:08:46.038Z,100379.53
2022-12-01T03:09:17.963Z,100377.88
2022-12-01T03:09:58.899Z,100376.47
2022-12-01T03:10:52.654Z,100382.22
2022-12-01T03:11:32.428Z,100379.13
2022-12-01T03:12:04.179Z,100378.47
2022-12-01T03:12:39.161Z,100387.16
2022-12-01T03:13:29.578Z,100387.97
2022-12-01T03:14:12.889Z,100385.22
2022-12-01T03:14:45.154Z,100380.91
2022-12-01T03:15:25.861Z,100386.19
2022-12-01T03:15:57.902Z,100384.59
2022-12-01T03:16:48.174Z,100385.50
2022-12-01T03:17:25.098Z,100384.69
2022-12-01T03:18:06.850Z,100394.03
2022-12-01T03:18:41.032Z,100386.47
2022-12-01T03:19:14.789Z,100384.41
2022-12-01T03:19:50.450Z,100389.06
2022-12-01T03:20:22.393Z,100387.16
2022-12-01T03:20:59.369Z,100385.28
2022-12-01T03:22:03.730Z,100386.91
2022-12-01T03:22:46.874Z,100385.69
2022-12-01T03:23:21.180Z,100385.97
2022-12-01T03:23:58.760Z,100383.22
2022-12-01T03:24:33.077Z,100382.56
2022-12-01T03:25:05.468Z,100383.75
2022-12-01T03:25:39.531Z,100379.41
2022-12-01T03:26:16.313Z,100381.44
2022-12-01T03:26:51.756Z,100383.88
2022-12-01T03:27:27.395Z,100386.28
2022-12-01T03:28:20.691Z,100380.84
2022-12-01T03:28:54.703Z,100384.09
2022-12-01T03:29:46.862Z,100374.41
2022-12-01T03:30:18.772Z,100379.75
2022-12-01T03:30:55.829Z,100380.84
2022-12-01T03:31:30.930Z,100381.12
2022-12-01T03:32:06.950Z,100376.56
2022-12-01T03:32:42.683Z,100379.13
2022-12-01T03:33:21.801Z,100378.72
2022-12-01T03:33:59.278Z,100373.56
2022-12-01T03:34:44.465Z,100377.47
2022-12-01T03:35:24.713Z,100372.19
2022-12-01T03:36:15.041Z,100376.25
2022-12-01T03:36:52.753Z,100371.91
2022-12-01T03:37:43.519Z,100370.28
2022-12-01T03:38:18.778Z,100368.94
2022-12-01T03:38:55.505Z,100362.56
2022-12-01T03:39:29.709Z,100369.13
2022-12-01T03:40:02.724Z,100363.72
2022-12-01T03:40:36.728Z,100366.00
2022-12-01T03:41:10.901Z,100361.94
2022-12-01T03:41:47.522Z,100359.19
2022-12-01T03:42:45.610Z,100368.25
2022-12-01T03:43:20.145Z,100362.84
2022-12-01T03:43:55.950Z,100350.22
2022-12-01T03:44:33.039Z,100363.84
2022-12-01T03:45:07.631Z,100358.03
2022-12-01T03:45:57.924Z,100359.13
2022-12-01T03:46:35.183Z,100359.37
2022-12-01T03:47:10.761Z,100355.84
2022-12-01T03:47:42.633Z,100359.78
2022-12-01T03:48:14.470Z,100359.41
2022-12-01T03:48:46.652Z,100361.31
2022-12-01T03:49:18.923Z,100359.44
2022-12-01T03:49:51.814Z,100360.91
2022-12-01T03:50:29.420Z,100366.16
2022-12-01T03:51:15.132Z,100365.38
2022-12-01T03:51:55.383Z,100362.37
2022-12-01T03:52:48.126Z,100369.00
2022-12-01T03:53:23.689Z,100367.19
2022-12-01T03:53:59.591Z,100367.25
2022-12-01T03:54:31.269Z,100366.53
2022-12-01T03:55:14.918Z,100362.87
2022-12-01T03:55:48.981Z,100358.97
2022-12-01T03:56:23.587Z,100364.28
2022-12-01T03:56:59.551Z,100361.56
2022-12-01T03:57:38.311Z,100367.03
2022-12-01T03:58:17.064Z,100366.06
2022-12-01T03:58:50.721Z,100366.75
2022-12-01T03:59:24.109Z,100365.94
2022-12-01T03:59:56.215Z,100352.94
2022-12-01T04:00:28.671Z,100355.66
2022-12-01T04:01:04.211Z,100357.12
2022-12-01T04:01:36.371Z,100355.91
2022-12-01T04:02:08.602Z,100358.06
2022-12-01T04:02:40.753Z,100357.72
2022-12-01T04:03:18.071Z,100354.28
2022-12-01T04:03:49.805Z,100354.84
2022-12-01T04:04:21.930Z,100360.94
2022-12-01T04:04:53.830Z,100351.47
2022-12-01T04:05:26.063Z,100364.47
2022-12-01T04:05:58.064Z,100359.69
2022-12-01T04:06:30.030Z,100356.44
2022-12-01T04:07:01.716Z,100361.59
2022-12-01T04:07:33.573Z,100366.22
2022-12-01T04:08:05.421Z,100362.69
2022-12-01T04:08:37.581Z,100368.69
2022-12-01T04:09:09.422Z,100372.63
2022-12-01T04:09:41.755Z,100365.06
2022-12-01T04:10:13.472Z,100356.50
2022-12-01T04:10:45.154Z,100363.28
2022-12-01T04:11:37.527Z,100361.91
2022-12-01T04:12:32.808Z,100362.41
2022-12-01T04:13:04.582Z,100359.97
2022-12-01T04:13:36.931Z,100365.66
2022-12-01T04:14:08.694Z,100358.81
2022-12-01T04:14:40.403Z,100365.63
2022-12-01T04:15:12.911Z,100363.47
2022-12-01T04:15:44.697Z,100365.63
2022-12-01T04:16:16.445Z,100366.00
2022-12-01T04:16:48.730Z,100367.19
2022-12-01T04:17:20.701Z,100365.56
2022-12-01T04:17:52.392Z,100366.06
2022-12-01T04:18:24.051Z,100362.41
2022-12-01T04:18:55.762Z,100365.94
2022-12-01T04:19:27.737Z,100365.09
2022-12-01T04:19:59.568Z,100368.53
2022-12-01T04:20:31.305Z,100363.63
2022-12-01T04:21:02.993Z,100367.16
2022-12-01T04:21:34.828Z,100358.47
2022-12-01T04:22:06.558Z,100360.66
2022-12-01T04:22:38.592Z,100358.19
2022-12-01T04:23:10.327Z,100357.09
2022-12-01T04:24:00.098Z,100358.84
2022-12-01T04:24:33.214Z,100360.53
2022-12-01T04:25:06.613Z,100363.91
2022-12-01T04:25:38.283Z,100369.06
2022-12-01T04:26:15.470Z,100365.56
2022-12-01T04:26:47.523Z,100362.97
2022-12-01T04:27:19.919Z,100364.59
2022-12-01T04:27:51.914Z,100371.09
2022-12-01T04:28:23.607Z,100367.69
2022-12-01T04:28:55.350Z,100375.66
2022-12-01T04:29:27.208Z,100369.53
2022-12-01T04:29:58.997Z,100378.25
2022-12-01T04:30:30.697Z,100369.28
2022-12-01T04:31:02.418Z,100374.69
2022-12-01T04:31:34.242Z,100372.81
2022-12-01T04:32:06.137Z,100378.50
2022-12-01T04:32:41.361Z,100377.91
2022-12-01T04:33:13.348Z,100376.81
2022-12-01T04:33:45.197Z,100376.59
2022-12-01T04:34:16.906Z,100376.59
2022-12-01T04:34:48.892Z,100376.09
2022-12-01T04:35:20.590Z,100379.16
2022-12-01T04:35:59.225Z,100377.28
2022-12-01T04:36:32.193Z,100381.06
2022-12-01T04:37:04.773Z,100378.78
2022-12-01T04:37:36.524Z,100383.50
2022-12-01T04:38:08.197Z,100384.09
2022-12-01T04:38:40.150Z,100378.41
2022-12-01T04:39:11.827Z,100375.16
2022-12-01T04:39:43.642Z,100374.19
2022-12-01T04:40:15.418Z,100378.03
2022-12-01T04:40:47.163Z,100378.25
2022-12-01T04:41:19.047Z,100382.22
2022-12-01T04:41:50.744Z,100380.44
2022-12-01T04:42:22.450Z,100382.50
2022-12-01T04:42:54.110Z,100377.06
2022-12-01T04:43:25.796Z,100378.72
2022-12-01T04:43:57.799Z,100375.84
2022-12-01T04:44:34.511Z,100373.00
2022-12-01T04:45:06.849Z,100372.34
2022-12-01T04:45:38.568Z,100380.22
2022-12-01T04:46:10.649Z,100381.16
2022-12-01T04:46:42.669Z,100385.22
2022-12-01T04:47:14.413Z,100375.19
2022-12-01T04:47:46.115Z,100371.94
2022-12-01T04:48:17.801Z,100371.16
2022-12-01T04:48:49.450Z,100371.44
2022-12-01T04:49:21.853Z,100367.81
2022-12-01T04:49:54.455Z,100378.25
2022-12-01T04:50:26.121Z,100377.56
2022-12-01T04:50:58.187Z,100376.19
2022-12-01T04:51:29.886Z,100368.22
2022-12-01T04:52:01.625Z,100377.69
2022-12-01T04:52:36.687Z,100376.59
2022-12-01T04:53:08.368Z,100378.91
2022-12-01T04:53:40.066Z,100381.75
2022-12-01T04:54:11.776Z,100376.34
2022-12-01T04:54:44.020Z,100371.59
2022-12-01T04:55:15.988Z,100383.94
2022-12-01T04:55:47.673Z,100378.25
2022-12-01T04:56:19.480Z,100388.81
2022-12-01T04:56:51.185Z,100382.03
2022-12-01T04:57:22.862Z,100391.50
2022-12-01T04:57:54.566Z,100389.22
2022-12-01T04:58:26.617Z,100385.28
2022-12-01T04:58:59.448Z,100386.09
2022-12-01T04:59:31.182Z,100388.12
2022-12-01T05:00:13.150Z,100386.09
2022-12-01T05:00:45.410Z,100390.44
2022-12-01T05:01:18.189Z,100393.69
2022-12-01T05:01:50.060Z,100396.66
2022-12-01T05:02:21.837Z,100397.34
2022-12-01T05:02:53.531Z,100398.31
2022-12-01T05:03:25.215Z,100401.38
2022-12-01T05:03:56.916Z,100399.78
2022-12-01T05:04:28.657Z,100408.19
2022-12-01T05:05:00.812Z,100394.50
2022-12-01T05:05:32.936Z,100407.25
2022-12-01T05:06:05.771Z,100405.06
2022-12-01T05:06:38.004Z,100407.53
2022-12-01T05:07:09.827Z,100406.69
2022-12-01T05:07:41.625Z,100402.50
2022-12-01T05:08:13.344Z,100398.84
2022-12-01T05:08:45.108Z,100408.88
2022-12-01T05:09:17.720Z,100408.31
2022-12-01T05:09:50.025Z,100405.72
2022-12-01T05:10:22.024Z,100404.50
2022-12-01T05:10:55.760Z,100400.97
2022-12-01T05:11:28.716Z,100404.50
2022-12-01T05:12:00.425Z,100403.13
2022-12-01T05:12:32.175Z,100397.94
2022-12-01T05:13:04.953Z,100410.16
2022-12-01T05:13:36.951Z,100399.37
2022-12-01T05:14:08.621Z,100395.31
2022-12-01T05:14:40.295Z,100406.53
2022-12-01T05:15:12.429Z,100401.97
2022-12-01T05:15:44.125Z,100400.47
2022-12-01T05:16:16.178Z,100406.84
2022-12-01T05:16:48.047Z,100408.19
2022-12-01T05:17:19.781Z,100404.66
2022-12-01T05:17:51.459Z,100403.41
2022-12-01T05:18:23.192Z,100404.62
2022-12-01T05:19:14.502Z,100395.88
2022-12-01T05:20:04.943Z,100396.94
2022-12-01T05:20:55.592Z,100398.53
2022-12-01T05:21:27.761Z,100401.56
2022-12-01T05:21:59.412Z,100397.63
2022-12-01T05:22:57.217Z,100389.34
2022-12-01T05:23:23.606Z,100398.03
2022-12-01T05:23:55.306Z,100396.25
2022-12-01T05:24:27.132Z,100394.91
2022-12-01T05:24:58.947Z,100402.78
2022-12-01T05:25:30.898Z,100393.81
2022-12-01T05:26:03.327Z,100385.69
2022-12-01T05:26:35.506Z,100390.56
2022-12-01T05:27:07.164Z,100387.34
2022-12-01T05:27:38.854Z,100394.50
2022-12-01T05:28:10.658Z,100394.50
2022-12-01T05:28:42.394Z,100394.66
2022-12-01T05:29:14.458Z,100391.81
2022-12-01T05:29:46.442Z,100388.00
2022-12-01T05:30:18.338Z,100395.06
2022-12-01T05:30:50.451Z,100386.66
2022-12-01T05:31:22.231Z,100396.94
2022-12-01T05:31:54.351Z,100389.75
2022-12-01T05:32:26.113Z,100390.44
2022-12-01T05:32:57.805Z,100390.16
2022-12-01T05:33:30.202Z,100390.72
2022-12-01T05:34:01.911Z,100390.56
2022-12-01T05:34:33.628Z,100388.25
2022-12-01T05:35:05.680Z,100391.97
2022-12-01T05:35:37.590Z,100385.50
2022-12-01T05:36:09.449Z,100385.00
2022-12-01T05:36:41.967Z,100387.44
2022-12-01T05:37:13.996Z,100390.41
2022-12-01T05:37:45.699Z,100386.37
2022-12-01T05:38:17.806Z,100389.09
2022-12-01T05:38:49.523Z,100390.41
2022-12-01T05:39:21.201Z,100388.75
2022-12-01T05:39:52.913Z,100389.94
2022-12-01T05:40:24.767Z,100388.19
2022-12-01T05:40:56.558Z,100389.31
2022-12-01T05:41:28.308Z,100392.72
2022-12-01T05:41:59.985Z,100382.56
2022-12-01T05:42:31.986Z,100388.78
2022-12-01T05:43:04.390Z,100388.53
2022-12-01T05:43:36.071Z,100390.41
2022-12-01T05:44:07.807Z,100389.22
2022-12-01T05:44:39.501Z,100388.94
2022-12-01T05:45:11.260Z,100389.91
2022-12-01T05:45:43.044Z,100395.56
2022-12-01T05:46:14.807Z,100395.16
2022-12-01T05:46:46.529Z,100394.62
2022-12-01T05:47:18.265Z,100390.69
2022-12-01T05:47:50.303Z,100397.84
2022-12-01T05:48:22.088Z,100393.66
2022-12-01T05:48:53.807Z,100392.25
2022-12-01T05:49:25.510Z,100385.75
2022-12-01T05:50:02.233Z,100390.66
2022-12-01T05:50:38.534Z,100389.31
2022-12-01T05:51:12.110Z,100394.97
2022-12-01T05:51:45.331Z,100390.50
2022-12-01T05:52:17.189Z,100391.72
2022-12-01T05:52:48.894Z,100385.91
2022-12-01T05:53:20.892Z,100387.09
2022-12-01T05:53:53.035Z,100398.75
2022-12-01T05:54:24.692Z,100384.25
2022-12-01T05:54:56.378Z,100386.81
2022-12-01T05:55:28.054Z,100392.97
2022-12-01T05:55:59.724Z,100390.13
2022-12-01T05:56:31.398Z,100388.25
2022-12-01T05:57:03.203Z,100389.47
2022-12-01T05:57:34.902Z,100398.84
2022-12-01T05:58:06.646Z,100392.06
2022-12-01T05:58:38.667Z,100406.13
2022-12-01T05:59:10.368Z,100399.34
2022-12-01T05:59:42.156Z,100395.16
2022-12-01T06:00:14.264Z,100399.09
2022-12-01T06:00:46.475Z,100396.63
2022-12-01T06:01:18.174Z,100399.09
2022-12-01T06:01:49.932Z,100401.78
2022-12-01T06:02:21.821Z,100403.44
2022-12-01T06:02:53.514Z,100397.84
2022-12-01T06:03:25.368Z,100400.09
2022-12-01T06:03:57.409Z,100407.66
2022-12-01T06:04:29.237Z,100398.06
2022-12-01T06:05:00.969Z,100401.41
2022-12-01T06:05:32.735Z,100401.19
2022-12-01T06:06:04.806Z,100405.06
2022-12-01T06:06:36.460Z,100402.59
2022-12-01T06:07:08.218Z,100406.25
2022-12-01T06:07:40.492Z,100407.16
2022-12-01T06:08:12.337Z,100402.44
2022-12-01T06:08:44.201Z,100398.53
2022-12-01T06:09:15.898Z,100409.41
2022-12-01T06:09:47.972Z,100403.84
2022-12-01T06:10:20.082Z,100405.97
2022-12-01T06:10:51.770Z,100406.19
2022-12-01T06:11:23.765Z,100404.00
2022-12-01T06:11:55.445Z,100403.84
2022-12-01T06:12:27.205Z,100410.50
2022-12-01T06:12:58.921Z,100406.91
2022-12-01T06:13:30.623Z,100406.47
2022-12-01T06:14:02.358Z,100406.69
2022-12-01T06:14:34.066Z,100411.28
2022-12-01T06:15:06.721Z,100411.03
2022-12-01T06:15:38.455Z,100416.50
2022-12-01T06:16:10.153Z,100418.38
2022-12-01T06:16:42.196Z,100416.16
2022-12-01T06:17:13.863Z,100414.28
2022-12-01T06:17:45.572Z,100412.41
2022-12-01T06:18:17.268Z,100423.78
2022-12-01T06:18:48.931Z,100414.78
2022-12-01T06:19:20.630Z,100415.56
2022-12-01T06:19:52.447Z,100416.91
2022-12-01T06:20:24.175Z,100411.13
2022-12-01T06:20:55.863Z,100417.19
2022-12-01T06:21:27.557Z,100420.44
2022-12-01T06:21:59.522Z,100412.25
2022-12-01T06:22:31.229Z,100416.03
2022-12-01T06:23:03.003Z,100415.81
2022-12-01T06:23:34.987Z,100405.81
2022-12-01T06:24:06.861Z,100416.66
2022-12-01T06:24:38.580Z,100406.91
2022-12-01T06:25:10.373Z,100414.75
2022-12-01T06:25:42.048Z,100408.91
2022-12-01T06:26:13.769Z,100414.03
2022-12-01T06:26:45.530Z,100419.87
2022-12-01T06:27:17.517Z,100416.37
2022-12-01T06:27:49.254Z,100410.31
2022-12-01T06:28:21.075Z,100408.16
2022-12-01T06:28:52.752Z,100412.59